Details for Virgin Australia at YMML




Go Back


Latest METAR
Local Time

YMML 221730Z 25004KT 9999 SCT015 BKN021 10/10 Q1026 TEMPO 1730/2030 BKN015

23/05/2018, 03:58:10

Description
Results
Virgin Australia Logo
Number of Pilots based at YMML
0 Pilots Based here
Number of Virgin Australia Flights Departed from YMML
4 Flights Departed
Number of Virgin Australia Flights Arrived at YMML
4 Flights Arrived
Number of Virgin Australia Schedules Departing from YMML
174 Schedules
Number of Virgin Australia Schedules Arriving at YMML
163 Schedules
Number of Virgin Australia Schedules Departing from YMML availible today
84 Schedules Today
Number of Virgin Australia Schedules Arriving at YMML availible today
83 Schedules Today
Average Landing Rate at YMML
-190 fpm
Virgin Australia Average Landing Rate at YMML
-63 fpm
Total Fuel Purchased at YMML by Virgin Australia
14,286.35 kgs / 31,495.69 lbs

Pilots Based at YMML


Pilot ID
Pilot Name
Pilot Rank
No. of Flights
No. of Flying Hours
There are no pilots assigned to this hub!   Will you be the first?
Content